Time;durP1;ratioP1;P1;durP2;ratioP2;P2;SDS_P1;SDS_P2;PMS_P1;PMS_P2;Temp;Humidity;BMP_temperature;BMP_pressure;BME280_temperature;BME280_humidity;BME280_pressure;Samples;Min_cycle;Max_cycle;Signal;HPM_P1;HPM_P2
2021/07/18 00:01:15;;;;;;;26.80;16.50;;;;;;;24.58;68.68;99881.33;126155;1098;105630;-78
2021/07/18 00:03:47;;;;;;;30.00;16.67;;;;;;;24.57;69.23;99884.05;126146;1099;104172;-77
2021/07/18 00:06:24;;;;;;;29.10;17.03;;;;;;;24.53;69.32;99880.58;125358;1099;104300;-78
2021/07/18 00:08:55;;;;;;;29.23;17.03;;;;;;;24.51;69.57;99878.85;125369;1099;104271;-78
2021/07/18 00:11:25;;;;;;;26.47;16.10;;;;;;;24.51;69.82;99882.44;126083;1099;104656;-76
2021/07/18 00:13:57;;;;;;;31.63;17.23;;;;;;;24.55;68.85;99880.52;125230;1099;104166;-77
2021/07/18 00:16:27;;;;;;;27.93;16.67;;;;;;;24.56;69.49;99885.84;126158;1099;104376;-77
2021/07/18 00:18:59;;;;;;;28.75;16.10;;;;;;;24.55;69.06;99885.89;126189;1099;104299;-78
2021/07/18 00:21:30;;;;;;;27.00;16.13;;;;;;;24.52;69.65;99880.63;126128;1099;104143;-77
2021/07/18 00:24:01;;;;;;;29.80;17.17;;;;;;;24.49;69.60;99884.27;126184;1100;104188;-77
2021/07/18 00:26:31;;;;;;;33.03;16.87;;;;;;;24.47;69.37;99882.58;126246;1099;104162;-76
2021/07/18 00:29:03;;;;;;;27.30;17.10;;;;;;;24.45;69.64;99873.69;126170;1099;104274;-77
2021/07/18 00:31:35;;;;;;;29.47;17.90;;;;;;;24.43;69.86;99864.82;126208;1099;104175;-79
2021/07/18 00:34:06;;;;;;;28.30;16.67;;;;;;;24.38;69.60;99865.83;126351;1099;104152;-77
2021/07/18 00:36:37;;;;;;;29.70;16.53;;;;;;;24.35;69.48;99873.97;126315;1099;104752;-78
2021/07/18 00:39:08;;;;;;;29.03;17.63;;;;;;;24.34;69.88;99872.23;126268;1099;104284;-76
2021/07/18 00:41:39;;;;;;;29.53;16.97;;;;;;;24.32;70.25;99874.06;126288;1099;104162;-78
2021/07/18 00:44:10;;;;;;;29.90;17.40;;;;;;;24.30;69.77;99875.92;126288;1097;104184;-78
2021/07/18 00:46:41;;;;;;;30.17;17.20;;;;;;;24.29;70.12;99884.88;126328;1099;104210;-78
2021/07/18 00:49:11;;;;;;;26.73;16.70;;;;;;;24.24;70.46;99886.83;126369;1099;104319;-78
2021/07/18 00:51:42;;;;;;;28.97;17.10;;;;;;;24.19;70.49;99872.70;126247;1099;104425;-79
2021/07/18 00:54:13;;;;;;;31.00;16.63;;;;;;;24.14;70.84;99877.34;126349;1099;104325;-78
2021/07/18 00:56:45;;;;;;;28.30;16.37;;;;;;;24.11;70.96;99882.79;126350;1099;104163;-78
2021/07/18 00:59:16;;;;;;;26.27;16.07;;;;;;;24.08;70.70;99882.88;126367;1096;104146;-78
2021/07/18 01:01:47;;;;;;;30.07;16.80;;;;;;;24.03;71.19;99874.98;126307;1099;104175;-79
2021/07/18 01:04:18;;;;;;;27.63;16.43;;;;;;;23.99;70.91;99881.34;126232;1098;107125;-78
2021/07/18 01:06:50;;;;;;;27.10;16.23;;;;;;;23.96;70.93;99882.30;126349;1098;104134;-79
2021/07/18 01:09:21;;;;;;;28.27;16.70;;;;;;;23.94;71.39;99885.96;126299;1099;104139;-78
2021/07/18 01:11:53;;;;;;;28.53;17.07;;;;;;;23.94;71.45;99877.92;126360;1097;104146;-78
2021/07/18 01:14:24;;;;;;;27.63;16.70;;;;;;;23.94;71.58;99883.28;126301;1099;118590;-77
2021/07/18 01:16:54;;;;;;;29.37;17.40;;;;;;;23.94;71.80;99878.80;126298;1099;104287;-79
2021/07/18 01:19:28;;;;;;;32.57;16.87;;;;;;;23.96;71.96;99882.30;126362;1099;104137;-77
2021/07/18 01:22:01;;;;;;;29.67;16.90;;;;;;;23.98;71.45;99891.19;126341;1098;104137;-78
2021/07/18 01:24:33;;;;;;;29.20;16.67;;;;;;;23.99;71.50;99884.88;126301;1099;104162;-78
2021/07/18 01:27:05;;;;;;;28.93;17.13;;;;;;;24.00;71.79;99883.97;126280;1099;104262;-79
2021/07/18 01:29:37;;;;;;;28.62;16.55;;;;;;;24.00;71.59;99886.66;126199;1099;104159;-78
2021/07/18 01:32:08;;;;;;;30.00;16.13;;;;;;;24.03;71.55;99886.56;126203;1099;104766;-79
2021/07/18 01:34:39;;;;;;;30.07;16.93;;;;;;;24.03;72.00;99885.70;126184;1099;104254;-78
2021/07/18 01:37:10;;;;;;;29.53;15.80;;;;;;;24.02;72.00;99887.47;126208;1099;104293;-78
2021/07/18 01:39:41;;;;;;;26.63;16.00;;;;;;;24.02;72.09;99882.11;126206;1099;104285;-78
2021/07/18 01:42:12;;;;;;;27.50;15.95;;;;;;;24.05;72.05;99887.38;126176;1099;104319;-78
2021/07/18 01:44:44;;;;;;;25.67;15.23;;;;;;;24.08;72.03;99889.11;126205;1099;104325;-77
2021/07/18 01:47:18;;;;;;;27.23;15.80;;;;;;;24.04;72.00;99891.02;126215;1099;104272;-78
2021/07/18 01:49:50;;;;;;;28.43;16.33;;;;;;;24.01;72.30;99893.78;125421;1099;104155;-77
2021/07/18 01:52:21;;;;;;;28.67;17.00;;;;;;;23.96;72.26;99889.47;126235;1099;104259;-80
2021/07/18 01:54:54;;;;;;;29.10;16.70;;;;;;;23.91;72.13;99894.09;126130;1099;104162;-79
2021/07/18 01:57:25;;;;;;;27.82;16.87;;;;;;;23.85;72.01;99887.96;126257;1099;104149;-78
2021/07/18 01:59:55;;;;;;;28.03;15.93;;;;;;;23.85;72.15;99887.96;126204;1099;104258;-78
2021/07/18 02:02:26;;;;;;;25.70;16.40;;;;;;;23.87;72.17;99887.92;126218;1099;104216;-79
2021/07/18 02:04:56;;;;;;;27.70;15.87;;;;;;;23.90;72.33;99886.96;126147;1098;104278;-78
2021/07/18 02:07:29;;;;;;;25.23;15.60;;;;;;;23.90;72.46;99889.64;126214;1099;105773;-77
2021/07/18 02:10:00;;;;;;;25.27;15.53;;;;;;;23.84;72.26;99894.27;126326;1099;104563;-79
2021/07/18 02:12:32;;;;;;;28.60;15.97;;;;;;;23.81;72.71;99893.42;126337;1099;104198;-78
2021/07/18 02:15:05;;;;;;;26.93;15.60;;;;;;;23.77;72.53;99892.64;126311;1099;104249;-78
2021/07/18 02:17:37;;;;;;;25.47;15.67;;;;;;;23.76;72.60;99890.00;126338;1097;104143;-77
2021/07/18 02:20:11;;;;;;;26.27;16.17;;;;;;;23.78;72.65;99909.58;126246;1099;104288;-76
2021/07/18 02:22:47;;;;;;;24.93;15.13;;;;;;;23.79;72.53;99905.98;126368;1098;104203;-78
2021/07/18 02:25:21;;;;;;;26.70;15.53;;;;;;;23.80;72.49;99889.00;126271;1099;104143;-77
2021/07/18 02:27:52;;;;;;;29.53;15.80;;;;;;;23.84;72.59;99896.95;126348;1099;104281;-78
2021/07/18 02:30:24;;;;;;;27.17;15.57;;;;;;;23.84;72.39;99904.98;126342;1098;104188;-76
2021/07/18 02:32:56;;;;;;;25.60;14.93;;;;;;;23.83;72.76;99907.67;126303;1099;104252;-78
2021/07/18 02:35:27;;;;;;;27.63;16.17;;;;;;;23.80;72.57;99900.59;126279;1099;104191;-79
2021/07/18 02:37:58;;;;;;;30.47;15.77;;;;;;;23.79;72.50;99905.98;126323;1097;104226;-79
2021/07/18 02:40:30;;;;;;;25.63;15.33;;;;;;;23.77;72.62;99907.84;126307;1099;104236;-78
2021/07/18 02:43:00;;;;;;;27.30;16.37;;;;;;;23.78;72.61;99914.94;126352;1098;104137;-79
2021/07/18 02:45:32;;;;;;;26.13;16.90;;;;;;;23.80;72.99;99922.02;126258;1099;104156;-78
2021/07/18 02:48:03;;;;;;;30.27;16.10;;;;;;;23.77;72.64;99910.52;126362;1099;104176;-77
2021/07/18 02:50:34;;;;;;;27.33;15.87;;;;;;;23.76;72.56;99908.75;126304;1098;104163;-78
2021/07/18 02:53:06;;;;;;;27.83;16.07;;;;;;;23.77;72.76;99915.88;126371;1099;104159;-78
2021/07/18 02:55:36;;;;;;;26.37;15.67;;;;;;;23.79;72.52;99927.42;126298;1099;104232;-78
2021/07/18 02:58:08;;;;;;;28.17;16.20;;;;;;;23.76;72.86;99916.79;126259;1099;104358;-78
2021/07/18 03:00:39;;;;;;;28.37;15.67;;;;;;;23.75;72.78;99913.23;126374;1099;104159;-78
2021/07/18 03:03:10;;;;;;;27.00;14.90;;;;;;;23.73;72.85;99912.38;126241;1099;104126;-78
2021/07/18 03:05:41;;;;;;;26.50;15.60;;;;;;;23.74;72.92;99913.28;126233;1099;104145;-78
2021/07/18 03:08:12;;;;;;;26.60;16.23;;;;;;;23.74;72.76;99911.47;126384;1097;104155;-78
2021/07/18 03:10:45;;;;;;;29.30;16.43;;;;;;;23.77;73.04;99910.52;126282;1098;104297;-78
2021/07/18 03:13:17;;;;;;;30.37;16.60;;;;;;;23.80;73.13;99910.44;126299;1098;104688;-78
2021/07/18 03:15:49;;;;;;;27.30;15.87;;;;;;;23.79;73.13;99922.06;126264;1099;104131;-77
2021/07/18 03:18:20;;;;;;;28.83;16.40;;;;;;;23.76;72.88;99920.34;126261;1099;104264;-78
2021/07/18 03:20:51;;;;;;;26.87;15.63;;;;;;;23.76;72.86;99917.66;126338;1099;104309;-78
2021/07/18 03:23:22;;;;;;;29.07;15.20;;;;;;;23.77;72.90;99922.10;126257;1099;104133;-77
2021/07/18 03:25:53;;;;;;;23.30;14.80;;;;;;;23.78;72.86;99913.16;126308;1099;104162;-77
2021/07/18 03:28:24;;;;;;;24.63;15.53;;;;;;;23.79;73.12;99922.93;126348;1097;104780;-77
2021/07/18 03:30:57;;;;;;;24.57;14.80;;;;;;;23.78;73.06;99929.23;126360;1097;104149;-78
2021/07/18 03:33:27;;;;;;;27.30;16.10;;;;;;;23.78;73.10;99933.69;126314;1099;104144;-78
2021/07/18 03:35:58;;;;;;;24.40;15.53;;;;;;;23.77;73.32;99921.23;126263;1099;104319;-78
2021/07/18 03:38:29;;;;;;;23.33;14.80;;;;;;;23.79;73.38;99919.38;126339;1099;104139;-78
2021/07/18 03:41:00;;;;;;;25.90;15.23;;;;;;;23.77;73.40;99927.46;126333;1099;104172;-78
2021/07/18 03:43:32;;;;;;;25.33;16.40;;;;;;;23.77;73.49;99922.10;126316;1099;104270;-78
2021/07/18 03:46:26;;;;;;;25.17;15.50;;;;;;;23.75;73.48;99925.73;126282;1099;104150;-78
2021/07/18 03:49:00;;;;;;;28.83;16.47;;;;;;;23.74;73.68;99918.64;126304;1099;104602;-79
2021/07/18 03:51:30;;;;;;;28.17;15.67;;;;;;;23.76;73.48;99919.47;126252;1099;104145;-78
2021/07/18 03:54:02;;;;;;;24.93;15.47;;;;;;;23.78;73.73;99914.94;126331;1098;104182;-78
2021/07/18 03:56:35;;;;;;;26.97;15.47;;;;;;;23.80;73.84;99919.34;126291;1097;104217;-79
2021/07/18 03:59:06;;;;;;;24.60;15.00;;;;;;;23.83;73.84;99915.70;126361;1099;104275;-77
2021/07/18 04:01:36;;;;;;;26.50;15.33;;;;;;;23.84;73.64;99920.16;126321;1099;104188;-77
2021/07/18 04:04:07;;;;;;;31.73;15.63;;;;;;;23.88;73.84;99924.52;126349;1098;104171;-79
2021/07/18 04:06:38;;;;;;;26.95;15.20;;;;;;;23.93;73.83;99914.53;126282;1099;104312;-78
2021/07/18 04:09:10;;;;;;;25.80;15.17;;;;;;;23.99;73.73;99914.36;126364;1099;104156;-76
2021/07/18 04:11:41;;;;;;;27.20;15.43;;;;;;;24.03;73.65;99916.04;126357;1099;104168;-78
2021/07/18 04:14:13;;;;;;;28.20;15.57;;;;;;;24.06;73.44;99920.44;126313;1099;104306;-77
2021/07/18 04:16:43;;;;;;;24.03;14.60;;;;;;;24.10;73.45;99921.22;126321;1099;104566;-78
2021/07/18 04:19:14;;;;;;;25.17;15.20;;;;;;;24.12;73.60;99919.36;126222;1099;104226;-77
2021/07/18 04:21:45;;;;;;;25.77;14.03;;;;;;;24.14;73.23;99914.86;126352;1099;104595;-77
2021/07/18 04:24:16;;;;;;;30.30;14.93;;;;;;;24.14;73.35;99914.86;126317;1097;104250;-77
2021/07/18 04:26:47;;;;;;;24.70;14.77;;;;;;;24.16;73.65;99921.05;126263;1099;104306;-78
2021/07/18 04:29:17;;;;;;;25.20;15.00;;;;;;;24.18;73.70;99911.14;126224;1099;104136;-78
2021/07/18 04:31:49;;;;;;;23.17;14.23;;;;;;;24.25;73.53;99911.83;126208;1099;104169;-78
2021/07/18 04:34:20;;;;;;;25.40;14.73;;;;;;;24.30;73.48;99915.27;126219;1099;104175;-78
2021/07/18 04:36:50;;;;;;;25.53;14.23;;;;;;;24.33;73.22;99918.73;126187;1099;104203;-78
2021/07/18 04:39:21;;;;;;;24.13;14.50;;;;;;;24.38;73.36;99922.13;126186;1099;104293;-79
2021/07/18 04:41:52;;;;;;;24.77;14.43;;;;;;;24.44;73.55;99921.08;126206;1099;104432;-78
2021/07/18 04:44:22;;;;;;;25.27;14.70;;;;;;;24.49;73.45;99920.94;126188;1099;104336;-77
2021/07/18 04:46:56;;;;;;;21.30;13.43;;;;;;;24.56;73.47;99925.20;126167;1099;104152;-78
2021/07/18 04:49:27;;;;;;;23.17;13.63;;;;;;;24.66;73.33;99926.68;126202;1099;104293;-78
2021/07/18 04:51:58;;;;;;;28.00;14.47;;;;;;;24.70;73.20;99922.98;126139;1099;104166;-78
2021/07/18 04:54:29;;;;;;;22.17;13.63;;;;;;;24.73;73.19;99922.89;126083;1099;104258;-79
2021/07/18 04:57:00;;;;;;;23.83;14.53;;;;;;;24.78;72.61;99924.52;126165;1099;104309;-77
2021/07/18 04:59:30;;;;;;;25.00;14.20;;;;;;;24.80;72.94;99923.56;126217;1097;101876;-77
2021/07/18 05:02:01;;;;;;;23.17;13.43;;;;;;;24.86;72.76;99920.68;126287;1099;104149;-78
2021/07/18 05:04:32;;;;;;;24.13;14.10;;;;;;;24.94;72.51;99920.43;126306;1099;104306;-78
2021/07/18 05:07:03;;;;;;;24.87;13.57;;;;;;;25.01;72.38;99921.09;126289;1099;104217;-78
2021/07/18 05:09:34;;;;;;;22.77;13.30;;;;;;;25.08;72.57;99923.52;126286;1099;104146;-79
2021/07/18 05:12:06;;;;;;;23.50;13.20;;;;;;;25.16;72.15;99922.41;126371;1099;104156;-79
2021/07/18 05:14:38;;;;;;;23.25;13.05;;;;;;;25.23;72.32;99924.83;126375;1099;104153;-77
2021/07/18 05:17:09;;;;;;;23.00;13.30;;;;;;;25.31;72.14;99924.60;126282;1099;104223;-78
2021/07/18 05:19:42;;;;;;;22.97;12.57;;;;;;;25.39;71.72;99925.20;126320;1099;104570;-78
2021/07/18 05:22:13;;;;;;;21.53;12.83;;;;;;;25.45;71.62;99934.88;126346;1099;104219;-78
2021/07/18 05:24:44;;;;;;;24.70;13.27;;;;;;;25.47;71.36;99925.80;126299;1099;104175;-77
2021/07/18 05:27:15;;;;;;;22.13;13.50;;;;;;;25.52;71.15;99924.78;126295;1099;104153;-77
2021/07/18 05:29:46;;;;;;;22.47;13.43;;;;;;;25.59;71.23;99931.70;126312;1099;104169;-77
2021/07/18 05:32:17;;;;;;;24.60;13.03;;;;;;;25.65;71.00;99923.42;126335;1099;104188;-79
2021/07/18 05:34:49;;;;;;;22.00;12.90;;;;;;;25.73;71.20;99928.52;126290;1099;104268;-77
2021/07/18 05:37:20;;;;;;;23.77;13.17;;;;;;;25.77;70.58;99927.46;126269;1099;104213;-77
2021/07/18 05:39:55;;;;;;;25.07;13.13;;;;;;;25.82;70.74;99929.06;126280;1099;118268;-78
2021/07/18 05:42:27;;;;;;;27.20;14.07;;;;;;;25.90;70.48;99926.09;126316;1098;104195;-77
2021/07/18 05:44:58;;;;;;;25.80;14.50;;;;;;;25.97;70.21;99924.05;126342;1097;104213;-77
2021/07/18 05:47:32;;;;;;;22.57;13.40;;;;;;;26.05;70.00;99932.72;126316;1099;104153;-78
2021/07/18 05:50:04;;;;;;;26.70;14.30;;;;;;;26.13;70.51;99930.65;126366;1099;104175;-77
2021/07/18 05:52:35;;;;;;;21.43;13.27;;;;;;;26.21;70.14;99929.46;126374;1099;104140;-78
2021/07/18 05:55:08;;;;;;;25.93;13.53;;;;;;;26.28;70.30;99922.92;126276;1099;104389;-77
2021/07/18 05:57:39;;;;;;;21.37;12.47;;;;;;;26.35;70.18;99919.94;126357;1099;104143;-78
2021/07/18 06:00:13;;;;;;;26.90;14.03;;;;;;;26.41;69.28;99926.01;126299;1099;104277;-78
2021/07/18 06:02:44;;;;;;;23.63;13.50;;;;;;;26.46;69.24;99930.28;126330;1098;104134;-77
2021/07/18 06:05:15;;;;;;;22.10;13.63;;;;;;;26.53;69.45;99928.22;126365;1099;104172;-78
2021/07/18 06:07:47;;;;;;;23.73;14.47;;;;;;;26.61;69.21;99934.16;126266;1099;104133;-78
2021/07/18 06:10:18;;;;;;;23.47;14.03;;;;;;;26.68;68.91;99934.84;126314;1099;104221;-78
2021/07/18 06:12:49;;;;;;;26.90;14.63;;;;;;;26.75;68.72;99939.03;126352;1099;104256;-78
2021/07/18 06:15:20;;;;;;;22.10;13.80;;;;;;;26.80;68.75;99931.67;126370;1099;104214;-78
2021/07/18 06:17:53;;;;;;;25.27;14.13;;;;;;;26.83;68.54;99936.92;126291;1099;104239;-77
2021/07/18 06:20:25;;;;;;;22.03;13.83;;;;;;;26.89;68.56;99935.78;126279;1099;104152;-77
2021/07/18 06:22:56;;;;;;;22.60;13.20;;;;;;;26.98;68.06;99939.92;126316;1099;104178;-77
2021/07/18 06:25:27;;;;;;;24.43;14.30;;;;;;;27.06;68.10;99937.78;126339;1099;104619;-77
2021/07/18 06:27:59;;;;;;;22.40;12.80;;;;;;;27.14;67.71;99945.54;126364;1099;104592;-77
2021/07/18 06:30:30;;;;;;;23.60;13.30;;;;;;;27.23;67.48;99948.72;126302;1098;104144;-78
2021/07/18 06:33:01;;;;;;;21.83;13.60;;;;;;;27.31;67.50;99943.04;126305;1098;104306;-78
2021/07/18 06:35:31;;;;;;;20.90;13.50;;;;;;;27.38;67.57;99941.84;126333;1098;104137;-78
2021/07/18 06:38:04;;;;;;;22.73;13.70;;;;;;;27.46;67.26;99936.13;126350;1099;104240;-79
2021/07/18 06:40:35;;;;;;;22.60;14.25;;;;;;;27.54;66.84;99939.36;126287;1099;104166;-78
2021/07/18 06:43:06;;;;;;;21.10;13.57;;;;;;;27.61;66.57;99932.77;126370;1099;104258;-78
2021/07/18 06:45:37;;;;;;;22.33;13.13;;;;;;;27.71;66.68;99935.06;126329;1099;104319;-78
2021/07/18 06:48:09;;;;;;;22.00;13.20;;;;;;;27.78;66.23;99936.52;126311;1099;104191;-77
2021/07/18 06:50:40;;;;;;;21.80;13.80;;;;;;;27.88;66.21;99934.31;126298;1099;104146;-76
2021/07/18 06:53:12;;;;;;;23.37;13.53;;;;;;;27.97;66.27;99937.48;126344;1099;104152;-78
2021/07/18 06:55:44;;;;;;;23.87;13.60;;;;;;;28.11;66.01;99925.17;126306;1099;103519;-78
2021/07/18 06:58:15;;;;;;;25.43;13.87;;;;;;;28.23;65.45;99927.30;126244;1099;104338;-76
2021/07/18 07:00:47;;;;;;;21.83;13.83;;;;;;;28.34;64.89;99924.11;126302;1099;105214;-77
2021/07/18 07:03:18;;;;;;;22.47;14.13;;;;;;;28.43;64.83;99933.59;126307;1098;104606;-77
2021/07/18 07:05:48;;;;;;;23.27;13.67;;;;;;;28.53;64.83;99932.19;126355;1099;104175;-77
2021/07/18 07:08:19;;;;;;;23.33;13.30;;;;;;;28.64;64.53;99926.31;126362;1099;104146;-77
2021/07/18 07:10:50;;;;;;;23.33;13.80;;;;;;;28.77;63.97;99934.71;126239;1098;104274;-78
2021/07/18 07:13:22;;;;;;;22.83;13.97;;;;;;;28.85;63.88;99937.91;126303;1099;104141;-78
2021/07/18 07:15:55;;;;;;;21.20;12.78;;;;;;;28.95;63.52;99931.11;126293;1099;104644;-77
2021/07/18 07:18:26;;;;;;;22.53;14.17;;;;;;;29.06;63.10;99930.55;126332;1099;104213;-77
2021/07/18 07:21:01;;;;;;;20.93;12.63;;;;;;;29.19;62.86;99928.12;126288;1097;104207;-77
2021/07/18 07:23:33;;;;;;;23.10;13.20;;;;;;;29.33;62.38;99932.86;126309;1098;104169;-77
2021/07/18 07:26:04;;;;;;;22.57;13.47;;;;;;;29.48;62.08;99940.17;126342;1099;104131;-78
2021/07/18 07:28:37;;;;;;;19.90;12.75;;;;;;;29.60;61.24;99933.23;126331;1099;104140;-76
2021/07/18 07:31:10;;;;;;;21.83;12.77;;;;;;;29.71;61.33;99932.67;126389;1099;104171;-78
2021/07/18 07:33:41;;;;;;;21.87;12.17;;;;;;;29.84;61.17;99933.81;126345;1099;104595;-77
2021/07/18 07:36:12;;;;;;;21.37;12.63;;;;;;;29.96;60.96;99932.27;126301;1099;104367;-78
2021/07/18 07:38:43;;;;;;;21.17;12.40;;;;;;;30.09;60.65;99933.36;126282;1099;104162;-77
2021/07/18 07:41:16;;;;;;;20.30;12.73;;;;;;;30.28;60.52;99930.50;126301;1098;104185;-78
2021/07/18 07:43:47;;;;;;;18.80;11.43;;;;;;;30.53;59.36;99931.87;126363;1099;104188;-78
2021/07/18 07:46:17;;;;;;;19.63;11.87;;;;;;;30.61;58.44;99926.03;126320;1099;104213;-78
2021/07/18 07:48:48;;;;;;;21.37;11.17;;;;;;;30.76;57.74;99926.97;126292;1098;104133;-77
2021/07/18 07:51:20;;;;;;;21.70;11.53;;;;;;;30.85;57.88;99926.44;126254;1099;104158;-78
2021/07/18 07:53:51;;;;;;;20.00;11.67;;;;;;;30.97;56.52;99928.47;126329;1099;104576;-77
2021/07/18 07:56:23;;;;;;;18.33;10.53;;;;;;;31.12;56.95;99926.71;126325;1099;104248;-77
2021/07/18 07:58:56;;;;;;;20.57;11.67;;;;;;;31.34;55.93;99931.72;126299;1099;104193;-79
2021/07/18 08:01:27;;;;;;;16.05;10.35;;;;;;;31.39;54.88;99936.00;126247;1098;104146;-78
2021/07/18 08:03:58;;;;;;;17.83;9.93;;;;;;;31.48;54.64;99939.02;126356;1099;104230;-78
2021/07/18 08:06:31;;;;;;;19.90;10.53;;;;;;;31.69;53.93;99925.15;126270;1099;104140;-77
2021/07/18 08:09:03;;;;;;;18.00;10.47;;;;;;;31.93;53.29;99921.88;126354;1097;104143;-78
2021/07/18 08:11:34;;;;;;;18.43;10.57;;;;;;;32.10;53.17;99919.03;126299;1097;104146;-77
2021/07/18 08:14:05;;;;;;;17.40;10.07;;;;;;;32.24;52.90;99921.73;126278;1099;104175;-77
2021/07/18 08:16:39;;;;;;;16.77;10.53;;;;;;;32.27;51.72;99920.64;126311;1099;104191;-78
2021/07/18 08:19:11;;;;;;;12.73;9.20;;;;;;;32.35;52.42;99926.47;126317;1098;104143;-77
2021/07/18 08:21:43;;;;;;;21.10;10.80;;;;;;;32.27;49.32;99920.64;126295;1099;104143;-78
2021/07/18 08:24:14;;;;;;;16.60;10.60;;;;;;;32.35;49.73;99926.47;126308;1099;104242;-78
2021/07/18 08:26:46;;;;;;;17.30;9.73;;;;;;;32.42;50.30;99922.37;126253;1099;104309;-79
2021/07/18 08:29:17;;;;;;;17.23;10.60;;;;;;;32.48;50.41;99923.83;126361;1099;104176;-79
2021/07/18 08:31:49;;;;;;;16.20;10.23;;;;;;;32.58;50.03;99927.70;126273;1099;104165;-78
2021/07/18 08:34:20;;;;;;;18.93;10.67;;;;;;;32.65;49.22;99925.48;126377;1099;104163;-78
2021/07/18 08:36:52;;;;;;;16.15;10.10;;;;;;;32.74;50.04;99918.55;126352;1098;104140;-76
2021/07/18 08:39:24;;;;;;;17.67;10.07;;;;;;;32.90;49.50;99922.00;126311;1099;104220;-77
2021/07/18 08:41:58;;;;;;;15.97;9.50;;;;;;;32.99;49.49;99925.06;126285;1099;104235;-76
2021/07/18 08:44:32;;;;;;;20.57;9.80;;;;;;;33.01;47.86;99926.72;126324;1099;104267;-76
2021/07/18 08:47:04;;;;;;;15.80;9.40;;;;;;;33.08;46.87;99922.63;126319;1099;104290;-78
2021/07/18 08:49:39;;;;;;;13.33;9.30;;;;;;;33.16;47.55;99924.83;126303;1099;104242;-77
2021/07/18 08:52:11;;;;;;;15.57;9.37;;;;;;;33.23;46.74;99920.72;126289;1097;104325;-78
2021/07/18 08:54:45;;;;;;;18.80;9.70;;;;;;;33.39;46.76;99917.81;126292;1099;104143;-77
2021/07/18 08:57:20;;;;;;;16.13;8.87;;;;;;;33.48;46.59;99913.60;126342;1097;104143;-77
2021/07/18 08:59:52;;;;;;;16.60;9.80;;;;;;;33.39;45.64;99916.95;126360;1099;104168;-78
2021/07/18 09:02:23;;;;;;;18.33;8.87;;;;;;;33.51;45.68;99918.83;126307;1099;104204;-77
2021/07/18 09:04:57;;;;;;;15.07;9.00;;;;;;;33.63;45.73;99915.25;126233;1099;104219;-77
2021/07/18 09:07:28;;;;;;;16.43;9.23;;;;;;;33.77;45.55;99914.32;126345;1099;104195;-76
2021/07/18 09:10:10;;;;;;;14.17;8.70;;;;;;;33.83;45.10;99918.44;126340;1099;104149;-77
2021/07/18 09:12:41;;;;;;;17.97;9.23;;;;;;;33.90;44.84;99913.45;126292;1099;104140;-77
2021/07/18 09:15:13;;;;;;;15.63;9.20;;;;;;;33.96;44.37;99911.16;126337;1099;104274;-77
2021/07/18 09:17:44;;;;;;;15.77;9.03;;;;;;;33.92;43.16;99916.92;126321;1099;104216;-76
2021/07/18 09:20:19;;;;;;;15.53;9.70;;;;;;;33.88;43.69;99915.39;126346;1099;104136;-77
2021/07/18 09:23:09;;;;;;;14.97;8.57;;;;;;;33.90;43.65;99914.31;126310;1099;104143;-76
2021/07/18 09:25:40;;;;;;;15.93;9.10;;;;;;;33.96;43.43;99916.59;126344;1099;104165;-76
2021/07/18 09:28:22;;;;;;;14.57;9.00;;;;;;;34.06;43.14;99913.22;126341;1099;104157;-78
2021/07/18 09:30:53;;;;;;;14.33;8.80;;;;;;;34.14;42.49;99905.36;126343;1099;104764;-77
2021/07/18 09:33:26;;;;;;;16.77;9.47;;;;;;;34.13;42.49;99909.08;126343;1099;105538;-78
2021/07/18 09:39:06;;;;;;;14.47;9.13;;;;;;;34.15;42.43;99907.11;125269;1102;105516;-77
2021/07/18 09:41:42;;;;;;;13.80;8.83;;;;;;;33.93;42.04;99908.65;124954;1102;104150;-79
2021/07/18 09:44:13;;;;;;;14.27;9.40;;;;;;;33.77;42.11;99914.32;125251;1102;104168;-78
2021/07/18 09:46:44;;;;;;;13.43;8.67;;;;;;;33.50;41.57;99912.53;125206;1102;104156;-78
2021/07/18 09:49:33;;;;;;;15.30;9.00;;;;;;;33.25;42.52;99907.89;124973;1102;104316;-78
2021/07/18 09:52:21;;;;;;;17.17;9.33;;;;;;;33.14;42.63;99905.01;124989;1102;104297;-77
2021/07/18 09:54:54;;;;;;;14.90;9.47;;;;;;;33.07;42.99;99909.14;125175;1102;104162;-78
2021/07/18 09:57:33;;;;;;;;;;;;;;;33.11;42.08;99916.09;124979;1102;104150;-78
2021/07/18 10:00:08;;;;;;;17.00;9.70;;;;;;;33.04;42.84;99912.92;125198;1102;104214;-80
2021/07/18 10:02:42;;;;;;;15.03;9.73;;;;;;;33.08;42.40;99911.75;125183;1102;104130;-79
2021/07/18 10:05:25;;;;;;;18.47;9.20;;;;;;;33.03;42.77;99905.73;125185;1102;104226;-78
2021/07/18 10:08:06;;;;;;;17.67;9.47;;;;;;;33.11;42.80;99905.22;125128;1102;104230;-77
2021/07/18 10:10:41;;;;;;;16.43;9.27;;;;;;;33.35;42.74;99908.15;125271;1101;104255;-77
2021/07/18 10:13:12;;;;;;;17.63;9.13;;;;;;;33.57;42.56;99912.10;125188;1102;102385;-79
2021/07/18 10:15:43;;;;;;;14.33;8.63;;;;;;;33.65;42.01;99916.01;125088;1102;104238;-77
2021/07/18 10:18:14;;;;;;;14.43;8.87;;;;;;;33.65;41.30;99909.70;125186;1102;104144;-77
2021/07/18 10:20:46;;;;;;;13.00;8.83;;;;;;;33.72;41.13;99907.45;124977;1102;104361;-78
2021/07/18 10:23:18;;;;;;;15.50;9.40;;;;;;;33.65;40.82;99902.41;125264;1102;104226;-78
2021/07/18 10:25:51;;;;;;;12.75;8.13;;;;;;;33.57;41.41;99903.94;124927;1102;104195;-77
2021/07/18 10:28:25;;;;;;;15.38;8.80;;;;;;;33.56;41.24;99903.05;125195;1102;104582;-79
2021/07/18 10:30:59;;;;;;;14.60;9.13;;;;;;;33.57;40.97;99899.36;124990;1102;104230;-79
2021/07/18 10:33:34;;;;;;;15.87;9.50;;;;;;;33.65;40.98;99898.83;125135;1102;104134;-77
2021/07/18 10:36:07;;;;;;;16.70;9.53;;;;;;;33.73;40.91;99893.73;125117;1102;104146;-79
2021/07/18 10:38:38;;;;;;;17.40;9.30;;;;;;;33.64;40.40;99897.97;125005;1102;104327;-79
2021/07/18 10:41:09;;;;;;;13.53;8.60;;;;;;;33.51;40.45;99891.63;124965;1102;104216;-78
2021/07/18 10:43:49;;;;;;;18.03;9.60;;;;;;;33.53;40.41;99899.69;125244;1102;104178;-77
2021/07/18 10:46:54;;;;;;;15.83;8.63;;;;;;;33.59;40.17;99893.81;125104;1102;104152;-78
2021/07/18 10:49:49;;;;;;;17.47;8.97;;;;;;;33.56;40.39;99888.59;124998;1102;104242;-78
2021/07/18 10:52:23;;;;;;;12.37;8.60;;;;;;;33.64;40.28;99887.09;125141;1102;104182;-77
2021/07/18 10:54:54;;;;;;;13.03;8.57;;;;;;;33.75;40.18;99880.03;125114;1102;104178;-78
2021/07/18 10:57:29;;;;;;;15.07;8.90;;;;;;;33.90;40.34;99875.36;125221;1102;104197;-77
2021/07/18 11:00:21;;;;;;;15.47;9.13;;;;;;;33.98;39.43;99873.80;125040;1100;104166;-77
2021/07/18 11:03:07;;;;;;;15.73;9.07;;;;;;;33.99;39.20;99875.55;125203;1102;104217;-79
2021/07/18 11:05:44;;;;;;;15.90;8.80;;;;;;;33.95;39.55;99874.02;124999;1105;104176;-78
2021/07/18 11:08:16;;;;;;;15.63;8.93;;;;;;;34.05;39.77;99871.53;124972;1105;104390;-77
2021/07/18 11:10:53;;;;;;;15.73;9.03;;;;;;;34.14;39.37;99873.59;124963;1105;104296;-77
2021/07/18 11:13:31;;;;;;;13.40;8.90;;;;;;;34.25;39.40;99871.94;124971;1105;104187;-77
2021/07/18 11:16:09;;;;;;;12.97;8.30;;;;;;;34.37;39.61;99869.17;125026;1105;104715;-78
2021/07/18 11:18:42;;;;;;;15.40;8.83;;;;;;;34.47;39.27;99868.49;124965;1106;104439;-77
2021/07/18 11:21:29;;;;;;;;;;;;;;;34.53;38.43;99868.93;124970;1105;105928;-77
2021/07/18 11:24:00;;;;;;;14.67;8.50;;;;;;;34.48;38.85;99870.25;125019;1105;104230;-80
2021/07/18 11:26:51;;;;;;;15.67;8.93;;;;;;;34.43;38.21;99858.84;125007;1105;104187;-78
2021/07/18 11:29:36;;;;;;;15.37;8.37;;;;;;;34.44;38.38;99857.83;125015;1105;104194;-78
2021/07/18 11:32:24;;;;;;;16.30;9.10;;;;;;;34.53;38.47;99855.31;124949;1105;104194;-77